Terminal Aerodrome Forecast
Issued by NWS Wilmington, NC

Home | Current Version | Previous Version | Text Only | Print | Product List | Glossary On
Versions: 1 2 3 4 5 6 7 8 9 10 11 12 13 14 15 16 17 18 19 20 21 22 23 24 25 26 27 28 29 30 31 32 33 34 35 36
000
FTUS42 KILM 232300
TAFLBT
TAF
KLBT 232333Z 2400/2424 23005KT P6SM VCSH SCT040 SCT120
     FM240500 23005KT P6SM SCT050
      TEMPO 2408/2411 4SM BR SCT005
     FM241400 24010KT P6SM SCT040 SCT100
      TEMPO 2418/2421 VRB20KT 3SM TSRA BKN015CB
     FM242200 26010KT P6SM VCSH SCT050 BKN100=

USA.gov is the U.S. government's official web portal to all federal, state and local government web resources and services.